Time;durP1;ratioP1;P1;durP2;ratioP2;P2;SDS_P1;SDS_P2;PMS_P1;PMS_P2;Temp;Humidity;BMP_temperature;BMP_pressure;BME280_temperature;BME280_humidity;BME280_pressure;Samples;Min_cycle;Max_cycle;Signal;HPM_P1;HPM_P2
2021/06/11 00:00:09;;;;;;;3.45;2.65;;;;;;;24.21;44.94;101007.13;143728;591;47010;-95
2021/06/11 00:02:36;;;;;;;5.82;3.67;;;;;;;24.20;44.63;100996.44;143724;584;46006;-94
2021/06/11 00:05:04;;;;;;;4.70;2.83;;;;;;;24.20;44.32;100996.44;143729;645;45925;-93
2021/06/11 00:07:31;;;;;;;3.83;2.67;;;;;;;24.18;44.86;100998.66;143725;598;47006;-93
2021/06/11 00:09:58;;;;;;;2.83;2.62;;;;;;;24.19;44.35;100995.63;143728;599;46012;-92
2021/06/11 00:12:26;;;;;;;3.20;2.85;;;;;;;24.19;43.94;100994.78;143729;591;46008;-96
2021/06/11 00:14:53;;;;;;;3.10;2.70;;;;;;;24.19;45.15;100994.78;143728;605;46002;-93
2021/06/11 00:17:20;;;;;;;4.97;2.85;;;;;;;24.16;44.55;100995.38;143731;609;47004;-93
2021/06/11 00:19:47;;;;;;;3.35;2.75;;;;;;;24.13;44.66;100994.00;143728;582;46012;-94
2021/06/11 00:22:14;;;;;;;4.32;3.10;;;;;;;24.10;44.89;100991.00;143724;602;47004;-92
2021/06/11 00:24:41;;;;;;;4.45;3.00;;;;;;;24.07;44.69;100990.47;143728;567;46008;-92
2021/06/11 00:27:09;;;;;;;3.15;2.70;;;;;;;24.06;44.62;100994.31;143729;647;47004;-95
2021/06/11 00:29:36;;;;;;;4.57;3.33;;;;;;;24.00;45.24;100980.91;143725;569;47009;-93
2021/06/11 00:32:03;;;;;;;3.42;2.87;;;;;;;24.02;44.27;100979.50;143730;608;47004;-92
2021/06/11 00:34:30;;;;;;;3.62;2.60;;;;;;;24.04;43.68;100984.75;143727;574;45925;-94
2021/06/11 00:36:58;;;;;;;4.32;2.72;;;;;;;24.05;44.28;100984.44;143723;592;47000;-86
2021/06/11 00:39:25;;;;;;;3.85;2.58;;;;;;;24.06;43.85;100994.31;143729;586;46013;-90
2021/06/11 00:41:52;;;;;;;3.60;2.60;;;;;;;24.06;43.80;100991.56;143727;576;48004;-90
2021/06/11 00:44:19;;;;;;;5.03;2.78;;;;;;;24.06;44.03;100986.09;143728;599;45925;-88
2021/06/11 00:46:46;;;;;;;3.20;2.58;;;;;;;24.01;44.12;100990.78;143722;602;49021;-88
2021/06/11 00:49:13;;;;;;;3.53;2.65;;;;;;;24.00;44.50;100983.66;143725;624;47012;-89
2021/06/11 00:51:41;;;;;;;4.32;2.70;;;;;;;23.98;44.57;100991.34;143723;573;47003;-91
2021/06/11 00:54:08;;;;;;;3.60;2.67;;;;;;;23.91;44.76;100983.41;143728;672;45928;-89
2021/06/11 00:56:35;;;;;;;5.43;2.83;;;;;;;23.85;45.45;100992.75;143731;595;46017;-89
2021/06/11 00:59:02;;;;;;;4.25;2.95;;;;;;;23.77;45.09;100992.25;143728;598;46010;-89
2021/06/11 01:01:30;;;;;;;5.82;3.47;;;;;;;23.72;45.80;100988.72;143725;647;48004;-88
2021/06/11 01:03:57;;;;;;;5.28;3.12;;;;;;;23.67;45.60;100984.03;143725;566;46000;-89
2021/06/11 01:06:28;;;;;;;5.35;2.75;;;;;;;23.68;45.61;100984.88;143719;594;49004;-87
2021/06/11 01:08:56;;;;;;;4.87;2.90;;;;;;;23.66;44.74;100978.84;143727;572;47011;-89
2021/06/11 01:11:27;;;;;;;4.60;2.47;;;;;;;23.63;44.88;100972.03;143728;570;47004;-90
2021/06/11 01:13:56;;;;;;;3.65;2.22;;;;;;;23.63;45.41;100980.25;143728;587;45011;-90
2021/06/11 01:16:23;;;;;;;3.78;3.08;;;;;;;23.61;45.73;100977.78;143730;703;46015;-92
2021/06/11 01:18:51;;;;;;;6.72;3.10;;;;;;;23.57;45.96;100978.63;143726;579;47010;-91
2021/06/11 01:21:21;;;;;;;4.28;2.70;;;;;;;23.54;45.43;100981.91;143719;594;48004;-90
2021/06/11 01:24:15;;;;;;;3.22;2.60;;;;;;;23.54;45.65;100980.00;143728;626;46000;-90
2021/06/11 01:26:49;;;;;;;4.10;2.73;;;;;;;23.53;45.48;100977.53;143730;651;47004;-91
2021/06/11 01:29:25;;;;;;;3.92;2.28;;;;;;;23.51;45.72;100980.56;143730;698;46012;-90
2021/06/11 01:31:59;;;;;;;8.85;2.97;;;;;;;23.48;45.51;100981.12;143725;752;47002;-91
2021/06/11 01:34:38;;;;;;;6.87;3.33;;;;;;;23.50;45.66;100983.56;143729;574;45927;-91
2021/06/11 01:37:22;;;;;;;5.85;3.37;;;;;;;23.50;46.13;100987.16;143727;607;48005;-90
2021/06/11 01:39:55;;;;;;;3.45;2.95;;;;;;;23.47;46.14;100984.97;143726;584;47010;-89
2021/06/11 01:42:23;;;;;;;11.10;3.60;;;;;;;23.44;46.49;100989.09;143724;576;46014;-90
2021/06/11 01:44:53;;;;;;;4.93;2.97;;;;;;;23.46;46.32;100983.31;143727;576;45927;-91
2021/06/11 01:47:23;;;;;;;5.62;3.58;;;;;;;23.46;46.48;100989.63;143729;664;47002;-90
2021/06/11 01:49:51;;;;;;;10.43;3.92;;;;;;;23.39;47.03;100983.63;143725;575;47010;-90
2021/06/11 01:52:21;;;;;;;5.20;3.03;;;;;;;23.37;46.36;100982.25;143727;606;47004;-89
2021/06/11 01:54:49;;;;;;;6.97;3.22;;;;;;;23.30;46.11;100982.53;143728;744;46007;-89
2021/06/11 01:57:16;;;;;;;5.68;3.12;;;;;;;23.22;46.22;100975.69;143729;602;47008;-91
2021/06/11 01:59:45;;;;;;;3.55;3.08;;;;;;;23.24;46.47;100983.66;143726;685;46011;-91
2021/06/11 02:02:14;;;;;;;3.60;3.00;;;;;;;23.26;46.24;100978.72;143724;588;47002;-89
2021/06/11 02:04:42;;;;;;;9.32;3.47;;;;;;;23.25;46.57;100982.56;143727;619;45927;-89
2021/06/11 02:07:10;;;;;;;6.20;2.97;;;;;;;23.25;46.51;100982.56;143727;580;47004;-90
2021/06/11 02:09:39;;;;;;;4.57;2.85;;;;;;;23.23;46.10;100990.22;143725;608;47010;-91
2021/06/11 02:12:07;;;;;;;4.37;3.35;;;;;;;23.21;46.76;100979.53;143723;595;47006;-87
2021/06/11 02:14:36;;;;;;;3.45;2.53;;;;;;;23.19;46.35;100991.84;143722;649;46008;-92
2021/06/11 02:17:04;;;;;;;3.53;2.30;;;;;;;23.17;45.93;100995.69;143720;586;48006;-91
2021/06/11 02:19:34;;;;;;;3.42;2.67;;;;;;;23.17;46.78;100998.44;143728;698;46017;-92
2021/06/11 02:22:02;;;;;;;5.47;2.90;;;;;;;23.14;47.04;100992.69;143725;622;47004;-92
2021/06/11 02:24:32;;;;;;;6.22;3.03;;;;;;;23.13;47.24;100983.63;143726;591;45926;-90
2021/06/11 02:26:59;;;;;;;4.62;2.53;;;;;;;23.12;46.82;100984.72;143727;598;47004;-92
2021/06/11 02:29:26;;;;;;;3.58;3.03;;;;;;;23.11;47.13;100993.22;143725;575;47009;-91
2021/06/11 02:31:54;;;;;;;3.95;2.90;;;;;;;23.06;47.30;100999.56;143720;569;48004;-90
2021/06/11 02:34:21;;;;;;;4.15;2.97;;;;;;;23.02;46.90;101001.19;143728;591;45010;-91
2021/06/11 02:36:48;;;;;;;4.97;3.00;;;;;;;23.00;46.82;101004.22;143729;620;46005;-89
2021/06/11 02:39:16;;;;;;;5.15;2.78;;;;;;;23.00;46.52;101006.13;143725;615;47008;-90
2021/06/11 02:41:48;;;;;;;4.57;3.03;;;;;;;23.00;46.46;101009.69;143723;624;47004;-91
2021/06/11 02:44:16;;;;;;;4.20;2.60;;;;;;;22.98;47.29;101008.31;143727;635;45925;-93
2021/06/11 02:46:55;;;;;;;7.28;2.87;;;;;;;22.97;46.77;101003.94;143724;662;48006;-91
2021/06/11 02:49:29;;;;;;;7.70;2.78;;;;;;;22.94;47.50;101001.75;143723;610;47026;-90
2021/06/11 02:52:00;;;;;;;4.97;2.90;;;;;;;22.96;47.13;101000.38;143725;568;47024;-91
2021/06/11 02:54:32;;;;;;;4.35;2.78;;;;;;;22.96;46.84;100997.66;143728;573;46002;-88
2021/06/11 02:57:04;;;;;;;5.47;2.47;;;;;;;22.94;47.05;101001.75;143728;579;47002;-91
2021/06/11 02:59:39;;;;;;;3.55;2.42;;;;;;;22.98;46.32;101000.09;143726;599;46011;-91
2021/06/11 03:02:13;;;;;;;3.10;2.35;;;;;;;22.98;46.55;101009.16;143723;569;47002;-92
2021/06/11 03:04:46;;;;;;;4.05;2.83;;;;;;;23.01;46.74;101013.25;143725;582;46002;-92
2021/06/11 03:07:24;;;;;;;3.00;2.40;;;;;;;22.99;46.74;101001.75;143728;593;47006;-91
2021/06/11 03:09:57;;;;;;;3.47;2.85;;;;;;;22.99;46.57;101018.16;143723;579;47010;-90
2021/06/11 03:12:26;;;;;;;3.37;2.12;;;;;;;22.99;46.87;101018.16;143726;634;47002;-91
2021/06/11 03:14:54;;;;;;;4.30;2.45;;;;;;;22.99;47.70;101029.97;143726;619;45019;-90
2021/06/11 03:17:25;;;;;;;3.37;2.78;;;;;;;22.98;47.76;101027.47;143728;601;46008;-92
2021/06/11 03:19:55;;;;;;;6.12;2.75;;;;;;;22.98;47.67;101031.06;143718;677;47008;-92
2021/06/11 03:22:33;;;;;;;5.35;2.62;;;;;;;22.98;48.12;101027.47;143724;708;47017;-90
2021/06/11 03:25:08;;;;;;;36.38;30.62;;;;;;;22.98;47.68;101032.97;143728;569;46927;-90
2021/06/11 03:27:46;;;;;;;21.20;16.10;;;;;;;22.98;47.66;101025.59;143728;588;47002;-92
2021/06/11 03:30:18;;;;;;;6.65;5.47;;;;;;;22.98;46.90;101030.22;143726;581;46018;-91
2021/06/11 03:32:52;;;;;;;3.50;3.03;;;;;;;22.93;47.44;101039.28;143727;567;46015;-91
2021/06/11 03:35:33;;;;;;;;;;;;;;;22.93;47.24;101033.78;143733;980;46002;-84
2021/06/11 03:38:04;;;;;;;6.40;4.62;;;;;;;22.95;47.72;101033.50;143737;570;47000;-89
2021/06/11 03:40:36;;;;;;;5.82;3.30;;;;;;;22.95;47.16;101036.25;143726;599;46012;-91
2021/06/11 03:43:03;;;;;;;9.88;3.40;;;;;;;22.95;48.02;101039.81;143724;632;47013;-91
2021/06/11 03:45:31;;;;;;;3.95;3.10;;;;;;;22.95;47.73;101033.50;143726;568;45923;-91
2021/06/11 03:48:03;;;;;;;7.32;3.03;;;;;;;22.93;47.50;101028.31;143727;576;47004;-90
2021/06/11 03:50:32;;;;;;;12.60;3.80;;;;;;;22.97;47.51;101025.84;143725;625;47009;-91
2021/06/11 03:53:01;;;;;;;5.65;3.40;;;;;;;23.05;46.85;101025.31;143724;609;47004;-89
2021/06/11 03:55:37;;;;;;;6.43;3.53;;;;;;;23.06;47.55;101031.59;143725;592;46002;-89
2021/06/11 03:58:09;;;;;;;7.28;4.00;;;;;;;23.10;46.69;101024.47;143732;570;47009;-89
2021/06/11 04:00:38;;;;;;;9.30;3.78;;;;;;;23.14;46.74;101026.38;143726;586;46925;-91
2021/06/11 04:03:05;;;;;;;7.12;3.55;;;;;;;23.16;46.34;101032.41;143724;586;47004;-90
2021/06/11 04:05:34;;;;;;;10.32;3.30;;;;;;;23.18;46.00;101026.66;143726;597;46004;-90
2021/06/11 04:08:06;;;;;;;5.25;3.40;;;;;;;23.17;46.15;101022.28;143727;600;47002;-90
2021/06/11 04:10:42;;;;;;;5.07;3.20;;;;;;;23.26;45.72;101028.06;143724;581;47010;-92
2021/06/11 04:13:48;;;;;;;5.05;3.15;;;;;;;23.37;46.20;101029.66;143722;600;47004;-90
2021/06/11 04:16:22;;;;;;;7.95;3.00;;;;;;;23.44;46.13;101021.97;143727;606;46004;-92
2021/06/11 04:18:50;;;;;;;6.68;3.20;;;;;;;23.51;46.11;101016.19;143727;655;46008;-91
2021/06/11 04:21:21;;;;;;;5.22;2.87;;;;;;;23.56;46.64;101023.59;143724;594;47010;-92
2021/06/11 04:23:57;;;;;;;5.57;2.83;;;;;;;23.61;46.97;101029.06;143726;698;46008;-89
2021/06/11 04:26:26;;;;;;;3.95;2.95;;;;;;;23.67;46.90;101018.88;143724;597;46004;-95
2021/06/11 04:28:55;;;;;;;6.22;3.50;;;;;;;23.72;46.79;101018.88;143731;673;45010;-90
2021/06/11 04:31:26;;;;;;;5.95;4.15;;;;;;;23.76;47.27;101018.03;143724;674;47008;-89
2021/06/11 04:33:53;;;;;;;9.30;4.40;;;;;;;23.84;47.34;101019.38;143728;589;46004;-90
2021/06/11 04:36:22;;;;;;;8.18;3.85;;;;;;;23.88;46.49;101016.87;143728;743;45927;-93
2021/06/11 04:38:58;;;;;;;3.83;2.72;;;;;;;23.96;45.36;101013.56;143731;574;46002;-90
2021/06/11 04:41:26;;;;;;;4.07;2.90;;;;;;;24.00;45.33;101017.41;143728;606;46029;-93
2021/06/11 04:43:56;;;;;;;4.50;2.83;;;;;;;24.05;45.54;101019.31;143727;695;47006;-90
2021/06/11 04:46:26;;;;;;;3.20;2.65;;;;;;;24.11;44.81;101020.91;143727;666;46006;-92
2021/06/11 04:48:54;;;;;;;6.70;3.28;;;;;;;24.18;45.42;101026.09;143728;651;47002;-90
2021/06/11 04:51:21;;;;;;;8.07;3.03;;;;;;;24.24;44.46;101024.94;143724;715;47010;-90
2021/06/11 04:53:48;;;;;;;5.10;2.47;;;;;;;24.33;44.56;101025.16;143728;588;47004;-92
2021/06/11 04:56:16;;;;;;;4.40;2.75;;;;;;;24.37;44.32;101034.47;143727;663;45925;-92
2021/06/11 04:58:44;;;;;;;6.85;2.67;;;;;;;24.43;44.27;101038.84;143729;572;46008;-91
2021/06/11 05:01:11;;;;;;;6.18;2.67;;;;;;;24.52;44.17;101047.31;143728;669;46010;-92
2021/06/11 05:03:38;;;;;;;3.90;3.08;;;;;;;24.55;44.00;101046.72;143726;607;47002;-92
2021/06/11 05:06:06;;;;;;;6.18;2.62;;;;;;;24.62;43.79;101047.22;143725;578;46002;-90
2021/06/11 05:08:33;;;;;;;8.27;3.67;;;;;;;24.70;43.56;101053.22;143726;612;46006;-92
2021/06/11 05:11:01;;;;;;;4.10;2.85;;;;;;;24.76;42.91;101054.84;143728;576;46010;-91
2021/06/11 05:13:29;;;;;;;4.82;2.95;;;;;;;24.87;43.07;101061.91;143721;578;47004;-92
2021/06/11 05:15:56;;;;;;;5.18;3.53;;;;;;;24.98;43.47;101070.84;143727;579;45925;-92
2021/06/11 05:18:29;;;;;;;8.80;3.17;;;;;;;25.05;43.71;101070.56;143728;593;47004;-91
2021/06/11 05:20:56;;;;;;;3.50;2.90;;;;;;;25.07;42.93;101084.81;143726;584;46013;-91
2021/06/11 05:23:24;;;;;;;5.97;3.22;;;;;;;25.03;42.95;101075.50;143725;657;47004;-90
2021/06/11 05:25:52;;;;;;;6.97;3.22;;;;;;;25.04;42.81;101071.66;143725;573;46000;-91
2021/06/11 05:28:22;;;;;;;5.62;2.92;;;;;;;25.11;42.97;101072.97;143722;716;47008;-90
2021/06/11 05:30:50;;;;;;;6.60;2.80;;;;;;;25.15;42.41;101078.69;143724;587;47008;-91
2021/06/11 05:33:17;;;;;;;5.82;2.80;;;;;;;25.19;41.92;101082.50;143721;566;47004;-90
2021/06/11 05:35:45;;;;;;;6.32;2.53;;;;;;;25.18;42.24;101088.28;143727;635;45926;-89
2021/06/11 05:38:13;;;;;;;4.57;3.10;;;;;;;25.19;42.63;101084.44;143729;585;46004;-88
2021/06/11 05:40:40;;;;;;;3.80;2.70;;;;;;;25.23;42.80;101086.34;143723;568;47010;-92
2021/06/11 05:43:07;;;;;;;3.67;2.58;;;;;;;25.29;43.08;101089.84;143725;628;46025;-92
2021/06/11 05:45:35;;;;;;;3.37;2.78;;;;;;;25.31;42.91;101092.28;143727;569;45927;-90
2021/06/11 05:48:02;;;;;;;9.18;3.40;;;;;;;25.37;42.88;101091.16;143729;637;47004;-90
2021/06/11 05:50:30;;;;;;;6.68;3.30;;;;;;;25.45;42.98;101089.72;143725;583;47011;-91
2021/06/11 05:52:59;;;;;;;5.62;2.85;;;;;;;25.50;42.92;101086.94;143720;664;47002;-90
2021/06/11 05:55:26;;;;;;;6.18;3.17;;;;;;;25.52;42.02;101096.53;143725;584;45924;-90
2021/06/11 05:57:54;;;;;;;3.97;3.28;;;;;;;25.59;42.19;101098.91;143728;589;46007;-92
2021/06/11 06:00:22;;;;;;;11.55;3.05;;;;;;;25.74;42.75;101097.94;143726;688;46010;-92
2021/06/11 06:02:49;;;;;;;4.25;3.15;;;;;;;25.78;41.54;101100.94;143719;644;50006;-89
2021/06/11 06:05:16;;;;;;;4.40;3.10;;;;;;;25.76;42.23;101098.47;143726;585;45928;-90
2021/06/11 06:07:43;;;;;;;7.03;2.92;;;;;;;25.87;41.58;101100.00;143726;635;47004;-92
2021/06/11 06:10:11;;;;;;;5.70;3.17;;;;;;;25.98;41.32;101102.59;143725;611;47010;-90
2021/06/11 06:12:38;;;;;;;7.20;3.20;;;;;;;25.90;41.36;101109.59;143728;568;46002;-91
2021/06/11 06:15:07;;;;;;;6.85;3.12;;;;;;;25.92;41.13;101109.31;143727;586;45927;-92
2021/06/11 06:17:36;;;;;;;5.90;3.08;;;;;;;25.98;41.74;101108.13;143721;582;49021;-92
2021/06/11 06:20:11;;;;;;;3.55;2.95;;;;;;;26.03;41.96;101099.81;143726;718;46012;-89
2021/06/11 06:22:39;;;;;;;7.40;2.78;;;;;;;26.10;42.08;101102.19;143725;572;47002;-89
2021/06/11 06:25:07;;;;;;;4.50;2.45;;;;;;;26.13;42.02;101102.44;143727;647;46006;-91
2021/06/11 06:27:35;;;;;;;6.10;2.60;;;;;;;26.21;41.88;101097.41;143729;568;47004;-90
2021/06/11 06:30:07;;;;;;;5.25;2.87;;;;;;;26.25;41.69;101114.97;143726;669;46028;-91
2021/06/11 06:32:34;;;;;;;3.22;2.80;;;;;;;26.32;41.40;101107.16;143718;599;48008;-87
2021/06/11 06:35:01;;;;;;;5.93;3.20;;;;;;;26.37;41.39;101101.59;143726;590;47004;-89
2021/06/11 06:37:28;;;;;;;2.95;2.62;;;;;;;26.41;41.63;101102.66;143726;588;48002;-91
2021/06/11 06:39:55;;;;;;;5.03;3.25;;;;;;;26.45;42.00;101098.19;143725;629;48927;-91
2021/06/11 06:42:22;;;;;;;3.85;2.17;;;;;;;26.49;41.69;101099.22;143723;600;48007;-89
2021/06/11 06:44:53;;;;;;;3.00;2.35;;;;;;;26.55;42.03;101096.38;143727;610;46002;-89
2021/06/11 06:47:20;;;;;;;2.95;2.25;;;;;;;26.59;41.35;101105.69;143728;649;46006;-90
2021/06/11 06:49:47;;;;;;;2.40;2.00;;;;;;;26.64;41.08;101103.69;143722;585;50020;-90
2021/06/11 06:52:18;;;;;;;5.03;1.70;;;;;;;26.70;41.07;101098.09;143725;623;47004;-92
2021/06/11 06:54:45;;;;;;;2.40;2.20;;;;;;;26.71;41.19;101094.22;143724;694;47000;-92
2021/06/11 06:57:13;;;;;;;2.90;2.30;;;;;;;26.68;40.86;101095.63;143728;600;47002;-91
2021/06/11 06:59:40;;;;;;;2.50;2.10;;;;;;;26.73;40.75;101095.56;143725;579;47010;-91
2021/06/11 07:02:07;;;;;;;4.37;2.50;;;;;;;26.77;40.99;101087.50;143726;590;47004;-90
2021/06/11 07:04:35;;;;;;;4.57;2.20;;;;;;;26.77;40.62;101085.59;143719;570;48009;-91
2021/06/11 07:07:03;;;;;;;3.15;2.30;;;;;;;26.79;40.88;101082.50;143726;611;47016;-92
2021/06/11 07:09:30;;;;;;;5.03;2.55;;;;;;;26.78;40.87;101078.13;143726;661;46012;-93
2021/06/11 07:11:57;;;;;;;4.32;2.40;;;;;;;26.82;41.51;101086.66;143725;586;47002;-95
2021/06/11 07:14:27;;;;;;;6.28;2.37;;;;;;;26.80;41.03;101077.87;143726;633;45927;-92
2021/06/11 07:16:54;;;;;;;3.60;2.45;;;;;;;26.78;40.78;101078.13;143730;593;46004;-90
2021/06/11 07:19:22;;;;;;;4.78;2.45;;;;;;;26.77;41.65;101074.56;143721;578;48004;-94
2021/06/11 07:21:48;;;;;;;5.35;2.55;;;;;;;26.85;41.59;101080.53;143726;580;47002;-92
2021/06/11 07:24:15;;;;;;;6.05;2.70;;;;;;;26.99;41.34;101084.16;143725;592;48002;-91
2021/06/11 07:26:42;;;;;;;6.18;2.15;;;;;;;27.11;40.49;101078.16;143728;661;46020;-89
2021/06/11 07:29:10;;;;;;;4.15;2.40;;;;;;;27.14;40.11;101072.03;143727;573;46010;-91
2021/06/11 07:31:37;;;;;;;4.35;3.53;;;;;;;27.09;40.33;101084.00;143725;590;47002;-90
2021/06/11 07:34:04;;;;;;;4.78;3.20;;;;;;;27.08;40.49;101078.78;143714;567;50010;-93
2021/06/11 07:36:31;;;;;;;3.45;2.20;;;;;;;27.12;41.43;101079.78;143726;567;47004;-95
2021/06/11 07:38:59;;;;;;;7.12;3.12;;;;;;;27.14;40.12;101074.81;143724;676;47012;-92
2021/06/11 07:41:26;;;;;;;6.65;3.53;;;;;;;26.91;43.57;101080.16;143726;583;46002;-90
2021/06/11 07:43:54;;;;;;;4.40;3.40;;;;;;;26.72;43.88;101077.37;143725;644;45928;-90
2021/06/11 07:46:21;;;;;;;4.40;3.40;;;;;;;26.63;43.49;101076.44;143729;604;46006;-92
2021/06/11 07:48:49;;;;;;;5.37;3.08;;;;;;;26.61;43.10;101076.72;143725;581;47008;-93
2021/06/11 07:51:16;;;;;;;7.12;3.40;;;;;;;26.64;43.80;101078.88;143725;567;47004;-91
2021/06/11 07:53:44;;;;;;;4.93;3.40;;;;;;;26.76;42.71;101077.59;143724;568;46006;-93
2021/06/11 07:56:11;;;;;;;8.25;6.28;;;;;;;26.91;41.99;101071.91;143728;583;47004;-90
2021/06/11 07:58:38;;;;;;;5.12;3.40;;;;;;;27.08;42.20;101073.28;143722;620;48004;-95
2021/06/11 08:01:05;;;;;;;4.47;3.08;;;;;;;27.06;41.85;101070.00;143725;598;47002;-90
2021/06/11 08:03:32;;;;;;;4.18;3.00;;;;;;;27.10;41.70;101068.25;143725;591;45928;-93
2021/06/11 08:05:59;;;;;;;4.72;3.58;;;;;;;27.26;42.41;101073.50;143731;594;46006;-92
2021/06/11 08:08:27;;;;;;;6.90;3.70;;;;;;;27.29;41.49;101075.62;143720;611;49015;-92
2021/06/11 08:10:54;;;;;;;7.50;3.70;;;;;;;27.20;41.50;101065.31;143726;587;47003;-91
2021/06/11 08:13:22;;;;;;;7.28;3.35;;;;;;;27.25;41.68;101069.94;143726;581;45928;-91
2021/06/11 08:15:49;;;;;;;5.78;3.78;;;;;;;27.38;41.19;101068.31;143728;602;47004;-92
2021/06/11 08:18:16;;;;;;;3.60;2.80;;;;;;;27.45;40.57;101065.97;143723;619;49002;-91
2021/06/11 08:20:44;;;;;;;4.68;3.53;;;;;;;27.58;41.17;101069.09;143725;596;47002;-87
2021/06/11 08:23:11;;;;;;;4.25;3.03;;;;;;;27.49;39.54;101067.03;143728;608;45924;-92
2021/06/11 08:25:39;;;;;;;7.03;3.37;;;;;;;27.31;42.35;101068.72;143730;603;46004;-90
2021/06/11 08:28:06;;;;;;;4.45;3.17;;;;;;;27.29;42.40;101073.72;143721;588;49004;-90
2021/06/11 08:30:33;;;;;;;4.82;3.37;;;;;;;27.38;41.84;101071.06;143727;569;47002;-93
2021/06/11 08:33:01;;;;;;;4.62;3.00;;;;;;;27.42;41.05;101076.78;143727;591;46006;-91
2021/06/11 08:35:28;;;;;;;5.97;3.58;;;;;;;27.35;40.83;101067.00;143729;596;45010;-94
2021/06/11 08:37:56;;;;;;;4.60;3.25;;;;;;;27.45;40.87;101068.72;143726;605;47012;-91
2021/06/11 08:40:24;;;;;;;3.87;3.22;;;;;;;27.51;40.16;101067.53;143723;576;48002;-91
2021/06/11 08:42:51;;;;;;;5.93;2.85;;;;;;;27.60;39.73;101072.34;143720;659;47004;-90
2021/06/11 08:45:19;;;;;;;4.30;2.83;;;;;;;27.65;39.15;101072.25;143728;576;47006;-90
2021/06/11 08:47:49;;;;;;;4.65;2.90;;;;;;;27.67;38.57;101068.06;143725;677;47009;-91
2021/06/11 08:50:34;;;;;;;3.65;3.35;;;;;;;27.81;38.54;101062.53;143725;598;47013;-92
2021/06/11 08:53:04;;;;;;;6.12;2.72;;;;;;;27.91;37.56;101064.25;143729;584;45928;-90
2021/06/11 08:55:32;;;;;;;3.50;2.72;;;;;;;28.01;37.38;101071.50;143729;596;46004;-91
2021/06/11 08:57:59;;;;;;;6.25;2.72;;;;;;;28.06;37.44;101060.37;143722;586;49004;-90
2021/06/11 09:00:28;;;;;;;3.53;3.10;;;;;;;28.04;38.16;101067.31;143725;572;47004;-91
2021/06/11 09:03:20;;;;;;;5.78;2.83;;;;;;;28.12;38.50;101067.44;143722;582;47006;-94
2021/06/11 09:06:05;;;;;;;8.30;2.90;;;;;;;28.14;37.50;101065.19;143731;619;46002;-91
2021/06/11 09:08:33;;;;;;;4.40;2.45;;;;;;;28.23;37.38;101059.75;143727;604;47008;-91
2021/06/11 09:11:18;;;;;;;3.12;2.83;;;;;;;28.37;38.80;101059.69;143725;601;47005;-92
2021/06/11 09:13:47;;;;;;;5.47;3.12;;;;;;;28.30;39.54;101053.81;143718;592;47006;-91
2021/06/11 09:16:20;;;;;;;4.28;2.92;;;;;;;28.34;40.12;101059.50;143729;635;47004;-91
2021/06/11 09:18:53;;;;;;;4.05;2.53;;;;;;;28.36;38.46;101066.34;143725;581;47010;-91
2021/06/11 09:21:48;;;;;;;5.78;3.42;;;;;;;28.38;41.53;101060.53;143725;589;47004;-92
2021/06/11 09:24:30;;;;;;;3.90;2.90;;;;;;;28.28;40.88;101065.16;143726;566;47000;-90
2021/06/11 09:27:09;;;;;;;5.15;2.85;;;;;;;28.33;40.09;101057.87;143729;611;46007;-90
2021/06/11 09:29:42;;;;;;;6.40;3.22;;;;;;;28.37;40.22;101056.12;143720;612;49013;-91
2021/06/11 09:32:38;;;;;;;4.90;3.20;;;;;;;28.41;41.80;101059.91;143724;611;47002;-90
2021/06/11 09:35:08;;;;;;;6.10;2.87;;;;;;;28.36;40.75;101060.03;143730;573;45010;-91
2021/06/11 09:37:38;;;;;;;3.35;2.83;;;;;;;28.46;40.13;101058.97;143727;573;49015;-89
2021/06/11 09:40:12;;;;;;;4.50;2.60;;;;;;;28.33;39.29;101058.69;143725;599;47009;-92
2021/06/11 09:42:49;;;;;;;3.85;2.72;;;;;;;28.10;39.92;101052.31;143726;588;47002;-89
2021/06/11 09:45:17;;;;;;;2.80;2.60;;;;;;;28.18;37.97;101056.28;143726;579;48004;-92
2021/06/11 09:47:51;;;;;;;5.78;2.42;;;;;;;28.32;38.48;101034.97;143727;582;49006;-91
2021/06/11 09:50:37;;;;;;;3.17;2.40;;;;;;;28.42;38.88;101026.44;143728;583;46030;-89
2021/06/11 09:53:11;;;;;;;2.75;2.53;;;;;;;28.49;38.37;101028.75;143728;590;47004;-90
2021/06/11 09:55:57;;;;;;;3.80;2.20;;;;;;;28.63;38.06;101037.00;143730;593;45926;-87
2021/06/11 09:58:28;;;;;;;5.65;2.50;;;;;;;28.64;36.80;101019.28;143730;629;47004;-91
2021/06/11 10:01:00;;;;;;;2.70;2.50;;;;;;;28.64;37.44;101035.03;143725;572;49010;-91
2021/06/11 10:03:29;;;;;;;3.17;2.67;;;;;;;28.68;36.87;101022.22;143727;596;47002;-91
2021/06/11 10:05:58;;;;;;;7.07;2.72;;;;;;;28.72;37.36;101024.03;143730;584;46002;-92
2021/06/11 10:08:27;;;;;;;8.75;2.85;;;;;;;28.76;37.59;101020.69;143724;623;48008;-92
2021/06/11 10:10:56;;;;;;;3.65;2.87;;;;;;;28.81;38.60;101021.38;143727;638;46012;-89
2021/06/11 10:13:23;;;;;;;4.12;2.80;;;;;;;28.86;37.53;101014.88;143722;670;47007;-88
2021/06/11 10:15:58;;;;;;;4.72;3.08;;;;;;;29.04;37.66;101021.34;143728;647;45928;-91
2021/06/11 10:18:25;;;;;;;3.95;2.87;;;;;;;28.94;35.15;101024.41;143710;595;52014;-90
2021/06/11 10:20:53;;;;;;;16.08;6.80;;;;;;;28.81;36.86;101020.56;143726;649;47012;-89
2021/06/11 10:23:22;;;;;;;5.68;2.53;;;;;;;28.65;36.74;101011.81;143727;631;47002;-90
2021/06/11 10:25:54;;;;;;;2.95;2.62;;;;;;;28.60;36.66;101015.50;143730;586;45924;-89
2021/06/11 10:28:51;;;;;;;4.55;2.67;;;;;;;28.54;36.80;101011.22;143727;618;49004;-91
2021/06/11 10:31:20;;;;;;;4.60;2.28;;;;;;;28.52;37.34;101007.97;143728;572;47010;-92
2021/06/11 10:33:52;;;;;;;5.05;2.55;;;;;;;28.41;38.27;101013.75;143723;580;47002;-90
2021/06/11 10:36:47;;;;;;;5.47;2.37;;;;;;;28.58;37.95;101017.78;143729;567;45923;-91
2021/06/11 10:39:24;;;;;;;5.95;3.00;;;;;;;28.53;38.78;101020.66;143726;569;47006;-94
2021/06/11 10:42:19;;;;;;;4.22;2.58;;;;;;;28.74;38.51;101021.00;143727;585;47020;-91
2021/06/11 10:44:52;;;;;;;3.20;2.40;;;;;;;28.82;37.52;101017.47;143726;635;47004;-90
2021/06/11 10:47:28;;;;;;;2.77;2.37;;;;;;;28.95;38.58;101029.59;143724;617;48009;-94
2021/06/11 10:50:13;;;;;;;4.60;2.22;;;;;;;28.96;38.58;101013.81;143729;660;47002;-91
2021/06/11 10:52:47;;;;;;;2.67;2.47;;;;;;;29.07;39.18;101017.13;143723;590;50002;-91
2021/06/11 10:55:44;;;;;;;3.00;2.47;;;;;;;29.00;37.26;101010.13;143728;618;47004;-92
2021/06/11 10:58:21;;;;;;;3.28;2.33;;;;;;;28.98;37.84;101008.78;143729;596;46004;-91
2021/06/11 11:00:48;;;;;;;2.80;2.47;;;;;;;29.02;38.00;100999.56;143731;579;46017;-91
2021/06/11 11:03:26;;;;;;;2.40;2.20;;;;;;;29.18;37.20;101001.91;143726;591;47002;-90
2021/06/11 11:05:54;;;;;;;4.28;2.40;;;;;;;29.27;37.10;100999.97;143720;605;48004;-91
2021/06/11 11:08:21;;;;;;;3.85;2.30;;;;;;;29.29;36.39;100992.16;143730;658;45926;-89
2021/06/11 11:10:54;;;;;;;4.43;2.80;;;;;;;29.39;36.18;100988.34;143728;681;47002;-89
2021/06/11 11:13:28;;;;;;;3.45;2.37;;;;;;;29.29;35.83;100992.16;143729;606;46012;-91
2021/06/11 11:15:57;;;;;;;4.55;2.78;;;;;;;29.28;37.01;100992.50;143726;581;47002;-92
2021/06/11 11:18:55;;;;;;;3.22;2.05;;;;;;;29.19;36.27;100982.22;143729;583;45009;-90
2021/06/11 11:21:27;;;;;;;4.60;2.28;;;;;;;29.15;36.39;100994.22;143732;706;45010;-90
2021/06/11 11:23:57;;;;;;;3.78;2.40;;;;;;;29.13;36.65;100990.97;143727;577;47012;-90
2021/06/11 11:26:48;;;;;;;4.45;2.22;;;;;;;29.08;36.96;100980.88;143725;709;48003;-89
2021/06/11 11:29:17;;;;;;;5.78;2.60;;;;;;;29.13;36.66;100966.88;143728;575;47010;-89
2021/06/11 11:31:51;;;;;;;3.55;2.47;;;;;;;29.13;35.50;100980.72;143732;603;47004;-87
2021/06/11 11:34:18;;;;;;;3.85;2.50;;;;;;;29.11;36.81;100965.56;143730;619;45011;-91
2021/06/11 11:36:46;;;;;;;4.43;2.40;;;;;;;29.15;36.83;100972.91;143727;596;47004;-89
2021/06/11 11:39:13;;;;;;;7.15;2.50;;;;;;;29.09;36.77;100971.44;143727;568;47005;-93